createdAt,value
2023-01-28T00:01:33.745Z,99946.75
2023-01-28T00:04:01.471Z,99952.78
2023-01-28T00:06:28.895Z,99959.91
2023-01-28T00:08:56.311Z,99961.00
2023-01-28T00:11:23.985Z,99951.06
2023-01-28T00:13:52.970Z,99949.47
2023-01-28T00:16:22.699Z,99942.34
2023-01-28T00:18:51.832Z,99961.50
2023-01-28T00:21:19.260Z,99970.41
2023-01-28T00:23:54.835Z,99965.00
2023-01-28T00:26:23.877Z,99966.22
2023-01-28T00:28:51.413Z,99967.81
2023-01-28T00:31:22.379Z,99964.34
2023-01-28T00:33:51.235Z,99963.47
2023-01-28T00:36:19.786Z,99963.72
2023-01-28T00:38:56.117Z,99964.53
2023-01-28T00:41:26.236Z,99963.25
2023-01-28T00:43:54.108Z,99963.78
2023-01-28T00:46:22.833Z,99966.12
2023-01-28T00:48:50.682Z,99965.56
2023-01-28T00:51:20.118Z,99970.41
2023-01-28T00:53:49.881Z,99970.78
2023-01-28T00:56:19.462Z,99970.87
2023-01-28T00:58:47.328Z,99967.84
2023-01-28T01:01:18.445Z,99961.06
2023-01-28T01:03:46.623Z,99966.38
2023-01-28T01:06:16.333Z,99973.19
2023-01-28T01:08:50.128Z,99972.91
2023-01-28T01:11:19.014Z,99967.69
2023-01-28T01:13:56.884Z,99963.87
2023-01-28T01:16:27.509Z,99974.28
2023-01-28T01:18:55.895Z,99965.22
2023-01-28T01:21:25.082Z,99969.84
2023-01-28T01:23:53.636Z,99966.53
2023-01-28T01:26:22.946Z,99966.62
2023-01-28T01:28:52.152Z,99967.34
2023-01-28T01:31:21.427Z,99972.63
2023-01-28T01:33:50.505Z,99976.63
2023-01-28T01:36:20.038Z,99977.81
2023-01-28T01:38:48.529Z,99969.81
2023-01-28T01:41:28.932Z,99975.59
2023-01-28T01:44:02.658Z,99965.06
2023-01-28T01:46:39.671Z,99978.81
2023-01-28T01:49:20.388Z,99980.22
2023-01-28T01:51:51.137Z,99978.16
2023-01-28T01:54:19.304Z,99995.75
2023-01-28T01:56:47.845Z,99994.41
2023-01-28T01:59:19.200Z,100000.06
2023-01-28T02:01:47.328Z,99991.16
2023-01-28T02:04:20.463Z,100000.22
2023-01-28T02:06:48.610Z,100003.63
2023-01-28T02:09:27.011Z,99995.84
2023-01-28T02:11:56.947Z,99994.69
2023-01-28T02:14:31.388Z,99994.81
2023-01-28T02:17:02.313Z,99999.41
2023-01-28T02:19:38.089Z,99999.38
2023-01-28T02:22:10.294Z,99998.44
2023-01-28T02:25:00.312Z,99996.00
2023-01-28T02:27:58.708Z,99994.69
2023-01-28T02:30:30.966Z,99987.34
2023-01-28T02:33:06.999Z,99992.44
2023-01-28T02:35:39.044Z,99983.97
2023-01-28T02:38:13.610Z,99985.81
2023-01-28T02:41:02.229Z,99984.66
2023-01-28T02:43:32.489Z,99988.16
2023-01-28T02:46:19.290Z,99989.53
2023-01-28T02:48:47.089Z,99987.84
2023-01-28T02:51:26.267Z,99982.12
2023-01-28T02:54:12.800Z,99972.78
2023-01-28T02:56:48.019Z,99988.69
2023-01-28T02:59:37.067Z,99990.88
2023-01-28T03:02:38.331Z,99982.84
2023-01-28T03:05:11.980Z,99984.56
2023-01-28T03:07:39.773Z,99985.53
2023-01-28T03:10:10.079Z,99983.31
2023-01-28T03:12:58.657Z,99987.53
2023-01-28T03:15:48.366Z,99989.56
2023-01-28T03:19:04.382Z,99991.53
2023-01-28T03:21:55.391Z,99986.75
2023-01-28T03:24:49.236Z,99984.88
2023-01-28T03:27:44.740Z,99990.22
2023-01-28T03:30:35.716Z,99986.47
2023-01-28T03:33:23.514Z,99993.37
2023-01-28T03:36:09.430Z,99994.69
2023-01-28T03:38:43.043Z,100001.50
2023-01-28T03:41:11.537Z,99990.06
2023-01-28T03:43:39.311Z,99994.28
2023-01-28T03:46:06.875Z,100000.28
2023-01-28T03:48:35.570Z,99999.19
2023-01-28T03:51:04.170Z,99996.25
2023-01-28T03:53:33.266Z,99999.59
2023-01-28T03:56:00.709Z,99995.47
2023-01-28T03:58:46.069Z,100011.13
2023-01-28T04:01:13.911Z,100007.78
2023-01-28T04:03:42.998Z,100008.00
2023-01-28T04:06:10.981Z,100017.31
2023-01-28T04:08:40.111Z,100012.12
2023-01-28T04:11:19.366Z,100001.81
2023-01-28T04:13:48.483Z,100008.53
2023-01-28T04:16:17.769Z,100001.94
2023-01-28T04:18:45.402Z,100010.09
2023-01-28T04:21:13.887Z,100008.41
2023-01-28T04:23:41.625Z,100001.41
2023-01-28T04:26:09.866Z,100002.50
2023-01-28T04:28:38.163Z,100015.59
2023-01-28T04:31:06.872Z,100018.97
2023-01-28T04:33:35.076Z,100013.69
2023-01-28T04:36:02.787Z,100016.06
2023-01-28T04:38:31.105Z,100020.34
2023-01-28T04:40:58.764Z,100020.88
2023-01-28T04:43:26.309Z,100018.72
2023-01-28T04:45:54.485Z,100020.19
2023-01-28T04:48:21.959Z,100028.28
2023-01-28T04:50:50.927Z,100026.66
2023-01-28T04:53:18.839Z,100026.69
2023-01-28T04:55:46.748Z,100025.94
2023-01-28T04:58:14.242Z,100030.25
2023-01-28T05:00:42.572Z,100035.12
2023-01-28T05:03:12.102Z,100024.13
2023-01-28T05:05:39.545Z,100020.75
2023-01-28T05:08:09.149Z,100020.00
2023-01-28T05:10:36.812Z,100033.66
2023-01-28T05:13:04.583Z,100028.34
2023-01-28T05:15:32.345Z,100026.41
2023-01-28T05:18:00.167Z,100028.81
2023-01-28T05:20:29.132Z,100034.41
2023-01-28T05:22:57.402Z,100037.53
2023-01-28T05:25:24.958Z,100034.22
2023-01-28T05:27:52.760Z,100031.81
2023-01-28T05:30:20.946Z,100038.75
2023-01-28T05:32:48.680Z,100027.47
2023-01-28T05:35:16.943Z,100031.75
2023-01-28T05:37:44.989Z,100043.91
2023-01-28T05:40:13.120Z,100039.72
2023-01-28T05:42:40.790Z,100039.22
2023-01-28T05:45:10.052Z,100044.06
2023-01-28T05:47:38.633Z,100033.59
2023-01-28T05:50:07.461Z,100038.47
2023-01-28T05:52:35.335Z,100056.81
2023-01-28T05:55:03.129Z,100057.19
2023-01-28T05:57:30.603Z,100054.41
2023-01-28T05:59:58.362Z,100056.78
2023-01-28T06:02:25.887Z,100058.00
2023-01-28T06:04:54.193Z,100050.19
2023-01-28T06:07:21.755Z,100054.81
2023-01-28T06:09:49.385Z,100060.94
2023-01-28T06:12:17.390Z,100062.62
2023-01-28T06:14:46.833Z,100061.66
2023-01-28T06:17:14.666Z,100071.94
2023-01-28T06:19:44.295Z,100075.97
2023-01-28T06:22:11.861Z,100072.78
2023-01-28T06:24:39.451Z,100075.41
2023-01-28T06:27:07.230Z,100071.56
2023-01-28T06:29:34.682Z,100079.62
2023-01-28T06:32:02.110Z,100076.50
2023-01-28T06:34:29.897Z,100085.47
2023-01-28T06:36:57.318Z,100092.16
2023-01-28T06:39:27.000Z,100096.25
2023-01-28T06:41:54.687Z,100098.03
2023-01-28T06:44:23.542Z,100093.03
2023-01-28T06:46:51.148Z,100102.97
2023-01-28T06:49:18.812Z,100109.34
2023-01-28T06:51:46.194Z,100113.75
2023-01-28T06:54:13.626Z,100110.22
2023-01-28T06:56:41.377Z,100116.19
2023-01-28T06:59:08.927Z,100118.25
2023-01-28T07:01:36.640Z,100119.59
2023-01-28T07:04:04.452Z,100125.41
2023-01-28T07:06:31.818Z,100131.47
2023-01-28T07:08:59.233Z,100134.28
2023-01-28T07:11:27.003Z,100138.38
2023-01-28T07:13:54.481Z,100133.38
2023-01-28T07:16:22.340Z,100136.84
2023-01-28T07:18:51.231Z,100140.41
2023-01-28T07:21:18.634Z,100141.81
2023-01-28T07:23:46.018Z,100145.66
2023-01-28T07:26:14.370Z,100141.69
2023-01-28T07:28:41.751Z,100150.69
2023-01-28T07:31:09.382Z,100142.94
2023-01-28T07:33:37.162Z,100146.91
2023-01-28T07:36:04.930Z,100142.31
2023-01-28T07:38:32.339Z,100157.53
2023-01-28T07:41:00.023Z,100147.78
2023-01-28T07:43:27.404Z,100149.19
2023-01-28T07:45:54.824Z,100142.84
2023-01-28T07:48:22.573Z,100148.47
2023-01-28T07:50:51.890Z,100151.75
2023-01-28T07:53:20.131Z,100151.50
2023-01-28T07:55:47.820Z,100149.06
2023-01-28T07:58:15.243Z,100146.97
2023-01-28T08:00:42.662Z,100157.50
2023-01-28T08:03:15.833Z,100148.69
2023-01-28T08:05:48.317Z,100154.66
2023-01-28T08:08:16.830Z,100153.63
2023-01-28T08:10:45.073Z,100154.69
2023-01-28T08:13:14.061Z,100158.47
2023-01-28T08:15:41.978Z,100159.44
2023-01-28T08:18:13.198Z,100168.88
2023-01-28T08:20:42.982Z,100156.31
2023-01-28T08:23:16.248Z,100151.09
2023-01-28T08:25:44.104Z,100166.34
2023-01-28T08:28:12.383Z,100164.66
2023-01-28T08:30:40.666Z,100172.16
2023-01-28T08:33:09.818Z,100173.84
2023-01-28T08:35:37.752Z,100173.53
2023-01-28T08:38:06.563Z,100170.72
2023-01-28T08:40:34.370Z,100180.16
2023-01-28T08:43:02.494Z,100180.47
2023-01-28T08:45:30.313Z,100185.75
2023-01-28T08:48:03.128Z,100183.88
2023-01-28T08:50:34.386Z,100189.69
2023-01-28T08:53:04.616Z,100185.66
2023-01-28T08:55:33.597Z,100195.94
2023-01-28T08:58:05.938Z,100190.78
2023-01-28T09:00:34.944Z,100196.63
2023-01-28T09:03:04.709Z,100194.59
2023-01-28T09:05:37.466Z,100202.59
2023-01-28T09:08:13.163Z,100200.13
2023-01-28T09:10:42.139Z,100206.50
2023-01-28T09:13:16.132Z,100208.72
2023-01-28T09:15:44.271Z,100210.19
2023-01-28T09:18:11.710Z,100211.44
2023-01-28T09:20:40.317Z,100213.47
2023-01-28T09:23:08.270Z,100214.34
2023-01-28T09:25:39.003Z,100221.69
2023-01-28T09:28:06.461Z,100215.41
2023-01-28T09:30:37.065Z,100215.56
2023-01-28T09:33:06.182Z,100211.22
2023-01-28T09:35:34.381Z,100217.84
2023-01-28T09:38:01.810Z,100215.94
2023-01-28T09:40:34.727Z,100219.34
2023-01-28T09:43:38.167Z,100220.03
2023-01-28T09:46:06.555Z,100219.31
2023-01-28T09:48:42.073Z,100227.22
2023-01-28T09:51:27.262Z,100212.22
2023-01-28T09:53:58.532Z,100210.88
2023-01-28T09:56:30.628Z,100222.53
2023-01-28T09:59:06.137Z,100222.25
2023-01-28T10:01:44.736Z,100228.47
2023-01-28T10:04:23.235Z,100219.19
2023-01-28T10:07:11.248Z,100220.88
2023-01-28T10:09:53.922Z,100219.31
2023-01-28T10:12:42.629Z,100207.22
2023-01-28T10:15:34.681Z,100212.66
2023-01-28T10:18:16.556Z,100205.31
2023-01-28T10:20:56.133Z,100206.91
2023-01-28T10:23:49.305Z,100213.06
2023-01-28T10:26:23.400Z,100211.41
2023-01-28T10:28:55.775Z,100201.97
2023-01-28T10:31:24.660Z,100206.97
2023-01-28T10:33:52.123Z,100218.06
2023-01-28T10:36:19.727Z,100212.19
2023-01-28T10:38:47.580Z,100220.50
2023-01-28T10:41:20.955Z,100219.66
2023-01-28T10:43:49.862Z,100222.22
2023-01-28T10:46:28.459Z,100226.00
2023-01-28T10:49:41.878Z,100211.06
2023-01-28T10:52:14.118Z,100219.66
2023-01-28T10:54:41.791Z,100216.91
2023-01-28T10:57:14.678Z,100210.66
2023-01-28T10:59:43.026Z,100219.03
2023-01-28T11:02:27.288Z,100203.53
2023-01-28T11:05:28.665Z,100214.06
2023-01-28T11:08:19.446Z,100224.69
2023-01-28T11:10:48.889Z,100213.87
2023-01-28T11:13:21.721Z,100217.22
2023-01-28T11:16:17.616Z,100209.09
2023-01-28T11:18:52.853Z,100210.41
2023-01-28T11:21:23.762Z,100208.00
2023-01-28T11:24:05.026Z,100206.84
2023-01-28T11:26:38.347Z,100205.25
2023-01-28T11:29:06.344Z,100208.19
2023-01-28T11:31:40.985Z,100205.56
2023-01-28T11:34:08.400Z,100208.62
2023-01-28T11:36:36.086Z,100198.84
2023-01-28T11:39:18.234Z,100205.88
2023-01-28T11:41:47.221Z,100204.53
2023-01-28T11:44:23.692Z,100196.00
2023-01-28T11:47:12.449Z,100204.56
2023-01-28T11:49:49.021Z,100206.97
2023-01-28T11:52:48.630Z,100208.44
2023-01-28T11:55:40.764Z,100197.97
2023-01-28T11:58:32.210Z,100197.16
2023-01-28T12:01:17.877Z,100195.41
2023-01-28T12:04:20.811Z,100197.56
2023-01-28T12:07:13.253Z,100180.19
2023-01-28T12:10:24.965Z,100185.25
2023-01-28T12:12:58.729Z,100179.81
2023-01-28T12:16:01.790Z,100174.31
2023-01-28T12:18:41.269Z,100176.13
2023-01-28T12:21:39.241Z,100186.59
2023-01-28T12:24:21.861Z,100185.69
2023-01-28T12:26:55.441Z,100179.00
2023-01-28T12:29:27.388Z,100184.88
2023-01-28T12:32:08.543Z,100184.31
2023-01-28T12:34:50.222Z,100178.31
2023-01-28T12:37:47.262Z,100186.06
2023-01-28T12:40:45.449Z,100178.38
2023-01-28T12:43:26.784Z,100192.31
2023-01-28T12:45:58.043Z,100193.00
2023-01-28T12:48:30.748Z,100181.44
2023-01-28T12:51:12.753Z,100187.38
2023-01-28T12:53:47.120Z,100190.06
2023-01-28T12:56:18.071Z,100186.22
2023-01-28T12:58:50.785Z,100185.69
2023-01-28T13:01:35.756Z,100185.31
2023-01-28T13:04:12.721Z,100184.16
2023-01-28T13:07:02.854Z,100185.25
2023-01-28T13:09:36.215Z,100203.00
2023-01-28T13:12:04.571Z,100188.41
2023-01-28T13:14:33.352Z,100194.56
2023-01-28T13:17:11.963Z,100201.66
2023-01-28T13:19:42.721Z,100197.75
2023-01-28T13:22:31.817Z,100203.37
2023-01-28T13:25:23.181Z,100199.81
2023-01-28T13:28:06.821Z,100194.47
2023-01-28T13:30:47.177Z,100205.50
2023-01-28T13:33:32.507Z,100206.41
2023-01-28T13:36:06.010Z,100210.50
2023-01-28T13:38:34.147Z,100213.87
2023-01-28T13:41:04.523Z,100214.50
2023-01-28T13:43:34.907Z,100210.34
2023-01-28T13:46:13.862Z,100222.03
2023-01-28T13:48:46.970Z,100229.41
2023-01-28T13:51:23.540Z,100221.19
2023-01-28T13:53:58.820Z,100229.94
2023-01-28T13:56:29.905Z,100238.44
2023-01-28T13:59:08.121Z,100233.25
2023-01-28T14:01:47.290Z,100229.91
2023-01-28T14:04:36.599Z,100231.31
2023-01-28T14:07:39.413Z,100244.63
2023-01-28T14:10:26.713Z,100246.63
2023-01-28T14:13:26.970Z,100245.47
2023-01-28T14:15:59.047Z,100246.31
2023-01-28T14:18:29.418Z,100243.06
2023-01-28T14:21:01.605Z,100250.34
2023-01-28T14:23:32.329Z,100252.94
2023-01-28T14:26:10.142Z,100250.59
2023-01-28T14:29:22.813Z,100264.37
2023-01-28T14:31:51.054Z,100258.91
2023-01-28T14:34:47.864Z,100265.94
2023-01-28T14:37:18.854Z,100271.81
2023-01-28T14:39:52.712Z,100261.09
2023-01-28T14:42:25.788Z,100261.44
2023-01-28T14:45:29.847Z,100271.03
2023-01-28T14:48:20.870Z,100276.66
2023-01-28T14:51:25.732Z,100279.72
2023-01-28T14:54:11.890Z,100286.72
2023-01-28T14:57:11.613Z,100279.84
2023-01-28T14:59:43.455Z,100276.69
2023-01-28T15:02:20.179Z,100275.88
2023-01-28T15:04:48.220Z,100281.63
2023-01-28T15:07:26.687Z,100276.12
2023-01-28T15:10:05.385Z,100280.91
2023-01-28T15:12:38.982Z,100291.81
2023-01-28T15:15:28.390Z,100284.34
2023-01-28T15:18:02.227Z,100301.09
2023-01-28T15:20:30.160Z,100297.19
2023-01-28T15:22:58.278Z,100304.09
2023-01-28T15:25:28.631Z,100300.00
2023-01-28T15:27:59.824Z,100313.47
2023-01-28T15:30:30.579Z,100307.12
2023-01-28T15:33:17.100Z,100321.97
2023-01-28T15:35:49.007Z,100316.75
2023-01-28T15:38:20.274Z,100321.22
2023-01-28T15:40:55.121Z,100319.94
2023-01-28T15:43:25.984Z,100321.19
2023-01-28T15:45:57.702Z,100321.13
2023-01-28T15:48:27.513Z,100327.38
2023-01-28T15:51:25.065Z,100329.53
2023-01-28T15:53:57.497Z,100330.41
2023-01-28T15:56:27.872Z,100342.66
2023-01-28T15:59:16.717Z,100341.97
2023-01-28T16:01:44.269Z,100338.69
2023-01-28T16:04:27.109Z,100348.75
2023-01-28T16:06:56.544Z,100342.41
2023-01-28T16:09:28.705Z,100353.97
2023-01-28T16:12:04.054Z,100354.44
2023-01-28T16:14:37.804Z,100348.13
2023-01-28T16:17:05.424Z,100358.06
2023-01-28T16:19:41.756Z,100352.69
2023-01-28T16:22:21.804Z,100351.09
2023-01-28T16:24:53.029Z,100364.84
2023-01-28T16:27:22.300Z,100366.78
2023-01-28T16:29:50.526Z,100371.81
2023-01-28T16:32:33.497Z,100371.56
2023-01-28T16:35:02.025Z,100383.34
2023-01-28T16:37:29.948Z,100378.69
2023-01-28T16:40:00.290Z,100382.41
2023-01-28T16:42:31.927Z,100382.53
2023-01-28T16:44:59.991Z,100382.50
2023-01-28T16:47:30.639Z,100394.44
2023-01-28T16:49:58.757Z,100395.88
2023-01-28T16:52:27.032Z,100390.06
2023-01-28T16:54:54.801Z,100391.62
2023-01-28T16:57:22.855Z,100400.13
2023-01-28T16:59:50.598Z,100390.81
2023-01-28T17:02:18.106Z,100392.75
2023-01-28T17:04:46.835Z,100393.56
2023-01-28T17:07:14.598Z,100389.63
2023-01-28T17:09:42.194Z,100388.00
2023-01-28T17:12:10.052Z,100391.56
2023-01-28T17:14:39.419Z,100394.38
2023-01-28T17:17:07.029Z,100389.66
2023-01-28T17:19:35.108Z,100407.09
2023-01-28T17:22:02.613Z,100408.53
2023-01-28T17:24:30.605Z,100412.44
2023-01-28T17:26:58.694Z,100412.22
2023-01-28T17:29:27.282Z,100409.22
2023-01-28T17:31:55.376Z,100409.09
2023-01-28T17:34:24.023Z,100417.28
2023-01-28T17:36:51.907Z,100428.78
2023-01-28T17:39:20.113Z,100439.12
2023-01-28T17:41:52.139Z,100424.28
2023-01-28T17:44:20.130Z,100423.81
2023-01-28T17:46:48.489Z,100422.03
2023-01-28T17:49:16.868Z,100430.59
2023-01-28T17:51:45.199Z,100434.34
2023-01-28T17:54:14.436Z,100433.66
2023-01-28T17:56:42.211Z,100437.06
2023-01-28T17:59:11.675Z,100437.47
2023-01-28T18:01:40.860Z,100437.28
2023-01-28T18:04:10.362Z,100442.31
2023-01-28T18:06:38.224Z,100440.91
2023-01-28T18:09:07.532Z,100438.00
2023-01-28T18:11:37.632Z,100452.56
2023-01-28T18:14:05.953Z,100447.00
2023-01-28T18:16:33.929Z,100447.56
2023-01-28T18:19:03.104Z,100453.41
2023-01-28T18:21:50.525Z,100463.47
2023-01-28T18:24:24.473Z,100467.87
2023-01-28T18:26:55.275Z,100467.47
2023-01-28T18:29:24.201Z,100461.53
2023-01-28T18:31:55.192Z,100464.72
2023-01-28T18:34:26.590Z,100464.78
2023-01-28T18:36:54.994Z,100461.16
2023-01-28T18:39:23.789Z,100463.50
2023-01-28T18:41:56.482Z,100464.09
2023-01-28T18:44:27.012Z,100468.41
2023-01-28T18:46:54.915Z,100470.41
2023-01-28T18:49:23.188Z,100465.38
2023-01-28T18:51:51.425Z,100471.81
2023-01-28T18:54:20.865Z,100475.53
2023-01-28T18:56:49.351Z,100477.22
2023-01-28T18:59:17.856Z,100486.22
2023-01-28T19:01:48.265Z,100486.81
2023-01-28T19:04:16.935Z,100491.88
2023-01-28T19:06:46.531Z,100490.47
2023-01-28T19:09:15.868Z,100487.06
2023-01-28T19:11:45.180Z,100478.41
2023-01-28T19:14:14.875Z,100491.94
2023-01-28T19:16:50.364Z,100480.28
2023-01-28T19:19:19.129Z,100498.25
2023-01-28T19:21:47.940Z,100495.38
2023-01-28T19:24:17.521Z,100494.06
2023-01-28T19:26:45.907Z,100490.94
2023-01-28T19:29:16.388Z,100509.31
2023-01-28T19:31:44.793Z,100510.63
2023-01-28T19:34:13.410Z,100506.19
2023-01-28T19:36:42.802Z,100505.59
2023-01-28T19:39:11.712Z,100506.47
2023-01-28T19:41:41.668Z,100506.91
2023-01-28T19:44:09.923Z,100505.84
2023-01-28T19:46:37.599Z,100514.91
2023-01-28T19:49:06.588Z,100505.81
2023-01-28T19:51:35.447Z,100514.09
2023-01-28T19:54:03.706Z,100524.94
2023-01-28T19:56:36.538Z,100522.00
2023-01-28T19:59:04.990Z,100522.38
2023-01-28T20:01:36.059Z,100522.59
2023-01-28T20:04:05.071Z,100526.34
2023-01-28T20:06:34.164Z,100529.22
2023-01-28T20:09:09.089Z,100534.12
2023-01-28T20:11:38.511Z,100544.53
2023-01-28T20:14:06.789Z,100535.06
2023-01-28T20:16:36.145Z,100545.16
2023-01-28T20:19:06.997Z,100547.31
2023-01-28T20:21:36.158Z,100544.25
2023-01-28T20:24:06.931Z,100534.09
2023-01-28T20:26:37.496Z,100557.84
2023-01-28T20:29:11.046Z,100546.44
2023-01-28T20:31:40.743Z,100558.13
2023-01-28T20:34:15.127Z,100545.13
2023-01-28T20:36:43.682Z,100559.13
2023-01-28T20:39:12.738Z,100556.50
2023-01-28T20:41:41.276Z,100552.47
2023-01-28T20:44:09.782Z,100556.50
2023-01-28T20:46:39.391Z,100556.94
2023-01-28T20:49:08.112Z,100564.31
2023-01-28T20:51:36.903Z,100566.09
2023-01-28T20:54:06.043Z,100567.16
2023-01-28T20:56:34.666Z,100559.25
2023-01-28T20:59:04.527Z,100576.59
2023-01-28T21:01:34.752Z,100588.59
2023-01-28T21:04:10.536Z,100577.69
2023-01-28T21:06:40.334Z,100596.00
2023-01-28T21:09:08.694Z,100593.75
2023-01-28T21:11:36.825Z,100593.69
2023-01-28T21:14:04.638Z,100595.78
2023-01-28T21:16:32.793Z,100590.31
2023-01-28T21:19:00.546Z,100564.78
2023-01-28T21:21:29.287Z,100575.34
2023-01-28T21:24:01.113Z,100576.63
2023-01-28T21:26:29.915Z,100573.84
2023-01-28T21:28:57.942Z,100580.34
2023-01-28T21:31:27.022Z,100577.72
2023-01-28T21:34:01.540Z,100589.22
2023-01-28T21:36:34.231Z,100591.91
2023-01-28T21:39:03.745Z,100590.09
2023-01-28T21:41:33.030Z,100591.00
2023-01-28T21:44:00.419Z,100595.12
2023-01-28T21:46:30.947Z,100593.69
2023-01-28T21:49:00.304Z,100592.75
2023-01-28T21:51:46.062Z,100595.12
2023-01-28T21:54:18.387Z,100584.69
2023-01-28T21:56:48.672Z,100591.25
2023-01-28T21:59:29.325Z,100592.22
2023-01-28T22:02:05.761Z,100582.28
2023-01-28T22:04:37.965Z,100604.03
2023-01-28T22:07:10.082Z,100585.66
2023-01-28T22:09:39.731Z,100584.47
2023-01-28T22:12:08.174Z,100582.94
2023-01-28T22:14:36.651Z,100597.63
2023-01-28T22:17:04.952Z,100597.31
2023-01-28T22:19:32.377Z,100593.69
2023-01-28T22:21:59.757Z,100607.16
2023-01-28T22:24:27.828Z,100600.38
2023-01-28T22:26:55.251Z,100598.47
2023-01-28T22:29:23.492Z,100604.44
2023-01-28T22:31:53.084Z,100596.53
2023-01-28T22:34:21.211Z,100605.91
2023-01-28T22:36:50.235Z,100596.66
2023-01-28T22:39:18.406Z,100602.75
2023-01-28T22:41:46.754Z,100610.47
2023-01-28T22:44:14.689Z,100603.37
2023-01-28T22:46:42.434Z,100611.78
2023-01-28T22:49:11.867Z,100608.06
2023-01-28T22:51:39.340Z,100614.91
2023-01-28T22:54:07.263Z,100608.88
2023-01-28T22:56:34.674Z,100610.72
2023-01-28T22:59:04.011Z,100608.88
2023-01-28T23:01:32.214Z,100627.34
2023-01-28T23:03:59.683Z,100613.91
2023-01-28T23:06:28.198Z,100615.63
2023-01-28T23:08:56.674Z,100615.63
2023-01-28T23:11:25.526Z,100617.75
2023-01-28T23:14:19.849Z,100615.38
2023-01-28T23:17:06.907Z,100617.69
2023-01-28T23:19:53.169Z,100626.94
2023-01-28T23:22:49.657Z,100624.47
2023-01-28T23:25:17.963Z,100625.28
2023-01-28T23:27:45.940Z,100617.31
2023-01-28T23:30:14.506Z,100625.44
2023-01-28T23:32:53.855Z,100623.03
2023-01-28T23:35:21.657Z,100627.28
2023-01-28T23:37:49.112Z,100626.03
2023-01-28T23:40:17.129Z,100623.78
2023-01-28T23:42:49.521Z,100637.06
2023-01-28T23:45:17.713Z,100643.03
2023-01-28T23:47:45.392Z,100639.34
2023-01-28T23:50:12.990Z,100636.50
2023-01-28T23:52:40.457Z,100618.94
2023-01-28T23:55:08.108Z,100629.94
2023-01-28T23:57:38.297Z,100638.72
